Neah Bay 6NM North of Cape Flattery, WA (Traffic Separation Lighted Buoy) (46087)

Conditions for Sunday

Daily
Weekly
Monthly
Marine Data Graph

Marine & Boating Location Search

Enter a coastal zip code for marine weather.

General Information

Location: 48.494 North -124.728 West
Buoy Type: 3-meter discus buoy
Buoy Hull: 3D16
Payload: ARES payload
Owned by: NDBC
Windspeed: Measured by obtained from anemometer
Sea Surface: Measured by Intake

Weather and Wave Data

Time Temp Humidity Wind Dominant Wave Wind Wave Wave Swell Pressure
  Air
(°F)
Water
(°F)
  Dir Speed
(kts)
Speed
(mph)
Period
(sec)
Height
(ft)
Range
(ft)
Period
(sec)
Height
(ft)
Range
(ft)
Period
(sec)
Height
(ft)
Range
(ft)
Atmo.
(in)
Tend.
(in)
20:20 47 51 91 ESE 19.4 22.4 - - - - - - 29.33 -
20:50 46 51 88 ESE 19.4 22.4 11 7.87 exactly 7.9 6 3.28 2.46 - 4.10 11 6.56 5.74 - 7.38 29.31 -0.09
21:20 46 51 86 ESE 21.4 24.6 - - - - - - 29.28 -
21:50 46 51 91 East 21.4 24.6 11 8.53 exactly 8.5 4 3.28 2.46 - 4.10 11 8.20 7.38 - 9.02 29.25 -0.12
22:20 47 51 86 ESE 23.3 26.8 - - - - - - 29.23 -
22:50 47 51 86 ESE 23.3 26.8 11 10.83 exactly 10.8 7 4.92 4.10 - 5.74 11 9.84 9.02 - 10.66 29.21 -0.13
23:20 47 51 86 ESE 21.4 24.6 - - - - - - 29.20 -
23:50 47 51 85 ESE 19.4 22.4 11 10.50 exactly 10.5 4 4.92 4.10 - 5.74 11 9.84 9.02 - 10.66 29.18 -0.14
00:20 47 51 82 SE 21.4 24.6 - - - - - - 29.16 -
00:50 47 51 86 SE 21.4 24.6 12 10.83 exactly 10.8 5 4.92 4.10 - 5.74 12 9.84 9.02 - 10.66 29.15 -0.10
01:20 46 51 90 SE 19.4 22.4 - - - - - - 29.14 -
01:50 46 51 91 SE 17.5 20.1 11 10.50 exactly 10.5 6 4.92 4.10 - 5.74 11 9.84 9.02 - 10.66 29.15 -0.06
02:20 47 51 87 SE 15.6 17.9 - - - - - - 29.14 -
02:50 47 51 82 ESE 13.6 15.7 11 9.19 exactly 9.2 5 3.28 2.46 - 4.10 11 8.20 7.38 - 9.02 29.16 -0.02
03:20 46 51 85 SSE 9.7 11.2 - - - - - - 29.17 -
03:50 46 51 74 NW 9.7 11.2 11 10.50 exactly 10.5 4 1.64 0.82 - 2.46 11 9.84 9.02 - 10.66 29.16 +0.02
04:20 46 51 78 WNW 5.8 6.7 - - - - - - 29.16 -
04:50 47 51 78 WSW 3.9 4.5 11 8.53 exactly 8.5 4 1.64 0.82 - 2.46 11 8.20 7.38 - 9.02 29.16 +0.01
05:20 47 51 76 NNW 7.8 8.9 - - - - - - 29.18 -
05:50 47 51 79 North 3.9 4.5 12 9.51 exactly 9.5 4 1.64 0.82 - 2.46 12 9.84 9.02 - 10.66 29.20 +0.04
06:20 47 51 75 NW 3.9 4.5 - - - - - - 29.21 -
06:50 49 51 63 WSW 11.7 13.4 11 9.51 exactly 9.5 5 1.64 0.82 - 2.46 11 9.84 9.02 - 10.66 29.22 +0.05
07:20 49 51 62 SW 11.7 13.4 - - - - - - 29.23 -
07:50 48 51 71 SSW 15.6 17.9 12 8.20 exactly 8.2 6 3.28 2.46 - 4.10 12 8.20 7.38 - 9.02 29.24 +0.07
08:20 48 51 78 South 13.6 15.7 - - - - - - 29.25 -
08:50 47 51 83 SSW 13.6 15.7 11 7.55 exactly 7.5 6 1.64 0.82 - 2.46 11 6.56 5.74 - 7.38 29.26 +0.07
09:20 49 51 76 SW 21.4 24.6 - - - - - - 29.27 -
10:20 50 51 71 WSW 19.4 22.4 - - - - - - 29.32 -
10:50 50 51 72 WSW 17.5 20.1 12 8.20 exactly 8.2 6 3.28 2.46 - 4.10 12 8.20 7.38 - 9.02 29.34 +0.10
11:20 50 51 68 WSW 19.4 22.4 - - - - - - 29.36 -
11:50 49 51 70 WSW 15.6 17.9 11 7.87 exactly 7.9 6 3.28 2.46 - 4.10 11 6.56 5.74 - 7.38 29.37 +0.11
12:20 50 51 74 WSW 15.6 17.9 - - - - - - 29.39 -
13:20 50 51 71 SW 19.4 22.4 - - - - - - 29.41 -
13:50 48 51 72 West 11.7 13.4 11 9.19 exactly 9.2 5 3.28 2.46 - 4.10 11 8.20 7.38 - 9.02 29.43 +0.09
14:20 51 51 71 SW 19.4 22.4 - - - - - - 29.44 -
14:50 51 51 71 WSW 17.5 20.1 11 8.86 exactly 8.9 7 4.92 4.10 - 5.74 11 6.56 5.74 - 7.38 29.45 +0.08
15:20 48 51 81 West 17.5 20.1 - - - - - - 29.47 -
15:50 50 51 75 WSW 21.4 24.6 11 8.53 exactly 8.5 6 4.92 4.10 - 5.74 11 6.56 5.74 - 7.38 29.48 -
16:20 50 51 78 WSW 19.4 22.4 - - - - - - 29.49 -
16:50 49 51 83 WSW 17.5 20.1 10 7.87 exactly 7.9 6 4.92 4.10 - 5.74 10 6.56 5.74 - 7.38 29.51 +0.08
17:20 50 51 77 West 19.4 22.4 - - - - - - 29.53 -
17:50 50 51 75 West 17.5 20.1 11 8.20 exactly 8.2 6 4.92 4.10 - 5.74 11 6.56 5.74 - 7.38 29.54 +0.09
18:20 50 51 74 West 15.6 17.9 - - - - - - 29.56 -
19:20 50 51 73 WSW 13.6 15.7 - - - - - - 29.57 -
19:50 48 51 76 West 13.6 15.7 11 6.89 exactly 6.9 5 3.28 2.46 - 4.10 11 6.56 5.74 - 7.38 29.59 +0.08
20:20 49 51 62 SW 15.6 17.9 - - - - - - 29.60 -
20:50 49 51 68 SW 19.4 22.4 11 7.55 exactly 7.5 5 3.28 2.46 - 4.10 11 6.56 5.74 - 7.38 29.61 +0.07
21:20 49 51 73 SW 19.4 22.4 - - - - - - 29.63 -
21:50 47 51 75 SW 13.6 15.7 11 7.87 exactly 7.9 7 3.28 2.46 - 4.10 11 6.56 5.74 - 7.38 29.64 -
22:20 50 51 68 SW 21.4 24.6 - - - - - - 29.65 -
22:50 50 51 68 SSW 19.4 22.4 10 7.87 exactly 7.9 6 4.92 4.10 - 5.74 10 6.56 5.74 - 7.38 29.65 +0.05
23:20 50 51 69 SSW 19.4 22.4 - - - - - - 29.64 -
23:50 48 51 77 SSW 17.5 20.1 10 7.87 exactly 7.9 5 4.92 4.10 - 5.74 10 4.92 4.10 - 5.74 29.64 +0.03
01:20 48 51 72 SW 21.4 24.6 - - - - - - 29.65 -
01:50 45 51 87 West 25.3 29.1 10 8.20 exactly 8.2 7 6.56 5.74 - 7.38 10 4.92 4.10 - 5.74 29.67 +0.03
02:20 49 51 68 West 23.3 26.8 - - - - - - 29.68 -
02:50 49 51 62 West 23.3 26.8 9 9.19 exactly 9.2 7 6.56 5.74 - 7.38 9 4.92 4.10 - 5.74 29.71 +0.06
03:20 49 51 64 West 21.4 24.6 - - - - - - 29.73 -
03:50 49 51 67 West 19.4 22.4 10 8.86 exactly 8.9 6 6.56 5.74 - 7.38 10 4.92 4.10 - 5.74 29.74 -

Detailed Wave Spectra

Time Water Depth Wave Height Spectral Peak Period Average Wave Period Sampling Interval Wave Record
20:00 843 ft 9.61 ft 10.8 sec 8.3 sec 0.6 sec 2400 sec
21:00 843 ft 7.81 ft 11.4 sec 7.0 sec 0.6 sec 2400 sec
22:00 843 ft 8.53 ft 11.4 sec 7.6 sec 0.6 sec 2400 sec
23:00 843 ft 10.79 ft 11.4 sec 7.4 sec 0.6 sec 2400 sec
00:00 843 ft 10.63 ft 11.4 sec 7.5 sec 0.6 sec 2400 sec
01:00 843 ft 10.99 ft 12.1 sec 7.6 sec 0.6 sec 2400 sec
02:00 843 ft 10.60 ft 11.4 sec 7.4 sec 0.6 sec 2400 sec
03:00 843 ft 9.19 ft 11.4 sec 8.4 sec 0.6 sec 2400 sec
04:00 843 ft 10.37 ft 11.4 sec 9.6 sec 0.6 sec 2400 sec
05:00 843 ft 8.50 ft 10.8 sec 8.9 sec 0.6 sec 2400 sec
06:00 843 ft 9.38 ft 12.1 sec 9.1 sec 0.6 sec 2400 sec
07:00 843 ft 9.48 ft 11.4 sec 9.7 sec 0.6 sec 2400 sec
08:00 843 ft 8.10 ft 12.1 sec 9.1 sec 0.6 sec 2400 sec
09:00 843 ft 7.61 ft 10.8 sec 9.0 sec 0.6 sec 2400 sec
10:00 843 ft 9.09 ft 10.8 sec 8.4 sec 0.6 sec 2400 sec
11:00 843 ft 8.37 ft 12.1 sec 8.0 sec 0.6 sec 2400 sec
12:00 843 ft 7.81 ft 11.4 sec 7.6 sec 0.6 sec 2400 sec
14:00 843 ft 9.15 ft 11.4 sec 7.4 sec 0.6 sec 2400 sec
15:00 843 ft 8.76 ft 11.4 sec 7.1 sec 0.6 sec 2400 sec
17:00 843 ft 8.04 ft 10.0 sec 6.5 sec 0.6 sec 2400 sec
18:00 843 ft 8.27 ft 11.4 sec 6.6 sec 0.6 sec 2400 sec
20:00 843 ft 7.02 ft 11.4 sec 6.7 sec 0.6 sec 2400 sec
21:00 843 ft 7.58 ft 10.8 sec 7.2 sec 0.6 sec 2400 sec
22:00 843 ft 7.78 ft 10.8 sec 7.1 sec 0.6 sec 2400 sec
23:00 843 ft 7.81 ft 10.0 sec 7.2 sec 0.6 sec 2400 sec
00:00 843 ft 7.91 ft 10.0 sec 6.9 sec 0.6 sec 2400 sec
02:00 843 ft 8.27 ft 10.0 sec 6.2 sec 0.6 sec 2400 sec
03:00 843 ft 9.25 ft 9.1 sec 6.1 sec 0.6 sec 2400 sec